Terminal Aerodrome Forecast
Issued by NWS

Home | Current Version | Previous Version | Text Only | Print | Product List | Glossary On
Versions: 1 2 3 4 5 6 7 8 9 10 11 12 13 14 15 16 17 18 19 20 21 22 23 24 25
000
FTAK31 PAJN 300311 AAC
TAFASI
TAF AMD
PASI 300311Z 3003/3024 VRB06KT P6SM VCSH BKN015 OVC025
      TEMPO 3003/3007 6SM -SHRA BR OVC015
     FM301400 VRB04KT P6SM BKN015 OVC050=

USA.gov is the U.S. government's official web portal to all federal, state and local government web resources and services.